sensor_id;sensor_type;location;lat;lon;timestamp;temperature;humidity
6333;DHT22;3199;49.102;8.856;2023-02-24T00:02:23;10.40;99.90
6333;DHT22;3199;49.102;8.856;2023-02-24T00:04:49;10.30;99.90
6333;DHT22;3199;49.102;8.856;2023-02-24T00:07:16;10.30;99.90
6333;DHT22;3199;49.102;8.856;2023-02-24T00:09:42;10.20;99.90
6333;DHT22;3199;49.102;8.856;2023-02-24T00:12:14;10.10;99.90
6333;DHT22;3199;49.102;8.856;2023-02-24T00:14:42;10.20;99.90
6333;DHT22;3199;49.102;8.856;2023-02-24T00:17:08;10.10;99.90
6333;DHT22;3199;49.102;8.856;2023-02-24T00:19:35;10.10;99.90
6333;DHT22;3199;49.102;8.856;2023-02-24T00:22:02;10.00;99.90
6333;DHT22;3199;49.102;8.856;2023-02-24T00:24:28;9.90;99.90
6333;DHT22;3199;49.102;8.856;2023-02-24T00:26:56;9.90;99.90
6333;DHT22;3199;49.102;8.856;2023-02-24T00:29:24;9.80;99.90
6333;DHT22;3199;49.102;8.856;2023-02-24T00:31:54;9.90;99.90
6333;DHT22;3199;49.102;8.856;2023-02-24T00:34:31;9.90;99.90
6333;DHT22;3199;49.102;8.856;2023-02-24T00:36:58;9.90;99.90
6333;DHT22;3199;49.102;8.856;2023-02-24T00:39:24;9.90;99.90
6333;DHT22;3199;49.102;8.856;2023-02-24T00:41:58;9.90;99.90
6333;DHT22;3199;49.102;8.856;2023-02-24T00:44:30;10.30;99.90
6333;DHT22;3199;49.102;8.856;2023-02-24T00:46:57;10.80;99.90
6333;DHT22;3199;49.102;8.856;2023-02-24T00:49:25;10.90;99.90
6333;DHT22;3199;49.102;8.856;2023-02-24T00:51:50;10.80;99.90
6333;DHT22;3199;49.102;8.856;2023-02-24T00:54:19;10.70;99.90
6333;DHT22;3199;49.102;8.856;2023-02-24T00:56:46;10.60;99.90
6333;DHT22;3199;49.102;8.856;2023-02-24T00:59:14;10.40;99.90
6333;DHT22;3199;49.102;8.856;2023-02-24T01:01:41;10.30;99.90
6333;DHT22;3199;49.102;8.856;2023-02-24T01:04:09;10.20;99.90
6333;DHT22;3199;49.102;8.856;2023-02-24T01:06:43;10.10;99.90
6333;DHT22;3199;49.102;8.856;2023-02-24T01:09:15;10.00;99.90
6333;DHT22;3199;49.102;8.856;2023-02-24T01:11:42;9.90;99.90
6333;DHT22;3199;49.102;8.856;2023-02-24T01:14:44;9.90;99.90
6333;DHT22;3199;49.102;8.856;2023-02-24T01:17:10;9.80;99.90
6333;DHT22;3199;49.102;8.856;2023-02-24T01:19:36;9.80;99.90
6333;DHT22;3199;49.102;8.856;2023-02-24T01:22:04;9.70;99.90
6333;DHT22;3199;49.102;8.856;2023-02-24T01:24:33;9.60;99.90
6333;DHT22;3199;49.102;8.856;2023-02-24T01:26:59;9.60;99.90
6333;DHT22;3199;49.102;8.856;2023-02-24T01:29:25;9.60;99.90
6333;DHT22;3199;49.102;8.856;2023-02-24T01:31:51;9.50;99.90
6333;DHT22;3199;49.102;8.856;2023-02-24T01:34:17;9.50;99.90
6333;DHT22;3199;49.102;8.856;2023-02-24T01:36:42;9.50;99.90
6333;DHT22;3199;49.102;8.856;2023-02-24T01:39:12;9.50;99.90
6333;DHT22;3199;49.102;8.856;2023-02-24T01:41:43;9.50;99.90
6333;DHT22;3199;49.102;8.856;2023-02-24T01:46:41;9.50;99.90
6333;DHT22;3199;49.102;8.856;2023-02-24T01:49:17;9.50;99.90
6333;DHT22;3199;49.102;8.856;2023-02-24T01:54:21;9.40;99.90
6333;DHT22;3199;49.102;8.856;2023-02-24T01:56:51;9.40;99.90
6333;DHT22;3199;49.102;8.856;2023-02-24T01:59:18;9.30;99.90
6333;DHT22;3199;49.102;8.856;2023-02-24T02:01:46;9.30;99.90
6333;DHT22;3199;49.102;8.856;2023-02-24T02:04:30;9.30;99.90
6333;DHT22;3199;49.102;8.856;2023-02-24T02:06:58;9.20;99.90
6333;DHT22;3199;49.102;8.856;2023-02-24T02:09:25;9.20;99.90
6333;DHT22;3199;49.102;8.856;2023-02-24T02:11:51;9.20;99.90
6333;DHT22;3199;49.102;8.856;2023-02-24T02:14:19;9.20;99.90
6333;DHT22;3199;49.102;8.856;2023-02-24T02:17:14;9.10;99.90
6333;DHT22;3199;49.102;8.856;2023-02-24T02:25:41;9.00;99.90
6333;DHT22;3199;49.102;8.856;2023-02-24T02:36:51;10.50;99.90
6333;DHT22;3199;49.102;8.856;2023-02-24T02:39:48;10.30;99.90
6333;DHT22;3199;49.102;8.856;2023-02-24T02:42:34;10.00;99.90
6333;DHT22;3199;49.102;8.856;2023-02-24T02:50:04;9.40;99.90
6333;DHT22;3199;49.102;8.856;2023-02-24T02:52:41;9.30;99.90
6333;DHT22;3199;49.102;8.856;2023-02-24T02:57:58;9.00;99.90
6333;DHT22;3199;49.102;8.856;2023-02-24T03:00:28;9.00;99.90
6333;DHT22;3199;49.102;8.856;2023-02-24T03:03:05;8.90;99.90
6333;DHT22;3199;49.102;8.856;2023-02-24T03:05:40;8.90;99.90
6333;DHT22;3199;49.102;8.856;2023-02-24T03:08:13;8.90;99.90
6333;DHT22;3199;49.102;8.856;2023-02-24T03:10:40;8.80;99.90
6333;DHT22;3199;49.102;8.856;2023-02-24T03:13:10;8.80;99.90
6333;DHT22;3199;49.102;8.856;2023-02-24T03:15:38;8.80;99.90
6333;DHT22;3199;49.102;8.856;2023-02-24T03:18:16;8.70;99.90
6333;DHT22;3199;49.102;8.856;2023-02-24T03:21:12;8.70;99.90
6333;DHT22;3199;49.102;8.856;2023-02-24T03:23:43;8.70;99.90
6333;DHT22;3199;49.102;8.856;2023-02-24T03:27:02;8.70;99.90
6333;DHT22;3199;49.102;8.856;2023-02-24T03:29:10;8.70;99.90
6333;DHT22;3199;49.102;8.856;2023-02-24T03:32:07;8.60;99.90
6333;DHT22;3199;49.102;8.856;2023-02-24T03:37:07;8.60;99.90
6333;DHT22;3199;49.102;8.856;2023-02-24T03:39:33;8.60;99.90
6333;DHT22;3199;49.102;8.856;2023-02-24T03:42:09;8.60;99.90
6333;DHT22;3199;49.102;8.856;2023-02-24T03:44:36;8.60;99.90
6333;DHT22;3199;49.102;8.856;2023-02-24T03:47:02;8.70;99.90
6333;DHT22;3199;49.102;8.856;2023-02-24T03:49:28;8.60;99.90
6333;DHT22;3199;49.102;8.856;2023-02-24T03:52:18;8.70;99.90
6333;DHT22;3199;49.102;8.856;2023-02-24T03:55:08;8.60;99.90
6333;DHT22;3199;49.102;8.856;2023-02-24T04:00:14;8.60;99.90
6333;DHT22;3199;49.102;8.856;2023-02-24T04:03:03;8.50;99.90
6333;DHT22;3199;49.102;8.856;2023-02-24T04:05:32;8.50;99.90
6333;DHT22;3199;49.102;8.856;2023-02-24T04:08:02;8.50;99.90
6333;DHT22;3199;49.102;8.856;2023-02-24T04:15:38;8.30;99.90
6333;DHT22;3199;49.102;8.856;2023-02-24T04:18:20;8.30;99.90
6333;DHT22;3199;49.102;8.856;2023-02-24T04:20:46;8.30;99.90
6333;DHT22;3199;49.102;8.856;2023-02-24T04:23:21;8.30;99.90
6333;DHT22;3199;49.102;8.856;2023-02-24T04:25:50;8.30;99.90
6333;DHT22;3199;49.102;8.856;2023-02-24T04:28:18;8.30;99.90
6333;DHT22;3199;49.102;8.856;2023-02-24T04:30:49;8.30;99.90
6333;DHT22;3199;49.102;8.856;2023-02-24T04:33:16;8.20;99.90
6333;DHT22;3199;49.102;8.856;2023-02-24T04:35:47;8.20;99.90
6333;DHT22;3199;49.102;8.856;2023-02-24T04:38:15;8.10;99.90
6333;DHT22;3199;49.102;8.856;2023-02-24T04:40:40;8.10;99.90
6333;DHT22;3199;49.102;8.856;2023-02-24T04:43:07;8.10;99.90
6333;DHT22;3199;49.102;8.856;2023-02-24T04:45:33;8.10;99.90
6333;DHT22;3199;49.102;8.856;2023-02-24T04:48:00;8.10;99.90
6333;DHT22;3199;49.102;8.856;2023-02-24T04:50:35;8.00;99.90
6333;DHT22;3199;49.102;8.856;2023-02-24T04:53:03;8.00;99.90
6333;DHT22;3199;49.102;8.856;2023-02-24T04:55:34;8.00;99.90
6333;DHT22;3199;49.102;8.856;2023-02-24T04:58:05;8.00;99.90
6333;DHT22;3199;49.102;8.856;2023-02-24T05:00:30;7.90;99.90
6333;DHT22;3199;49.102;8.856;2023-02-24T05:03:04;7.90;99.90
6333;DHT22;3199;49.102;8.856;2023-02-24T05:05:30;7.90;99.90
6333;DHT22;3199;49.102;8.856;2023-02-24T05:08:04;7.90;99.90
6333;DHT22;3199;49.102;8.856;2023-02-24T05:10:42;7.90;99.90
6333;DHT22;3199;49.102;8.856;2023-02-24T05:13:22;7.90;99.90
6333;DHT22;3199;49.102;8.856;2023-02-24T05:15:51;8.00;99.90
6333;DHT22;3199;49.102;8.856;2023-02-24T05:18:17;8.00;99.90
6333;DHT22;3199;49.102;8.856;2023-02-24T05:20:49;8.10;99.90
6333;DHT22;3199;49.102;8.856;2023-02-24T05:23:36;8.00;99.90
6333;DHT22;3199;49.102;8.856;2023-02-24T05:26:04;8.00;99.90
6333;DHT22;3199;49.102;8.856;2023-02-24T05:28:39;8.00;99.90
6333;DHT22;3199;49.102;8.856;2023-02-24T05:31:07;8.00;99.90
6333;DHT22;3199;49.102;8.856;2023-02-24T05:33:35;8.10;99.90
6333;DHT22;3199;49.102;8.856;2023-02-24T05:36:04;8.00;99.90
6333;DHT22;3199;49.102;8.856;2023-02-24T05:38:31;8.00;99.90
6333;DHT22;3199;49.102;8.856;2023-02-24T05:41:04;7.90;99.90
6333;DHT22;3199;49.102;8.856;2023-02-24T05:43:31;7.90;99.90
6333;DHT22;3199;49.102;8.856;2023-02-24T05:46:02;7.90;99.90
6333;DHT22;3199;49.102;8.856;2023-02-24T05:48:29;7.90;99.90
6333;DHT22;3199;49.102;8.856;2023-02-24T05:51:00;7.80;99.90
6333;DHT22;3199;49.102;8.856;2023-02-24T05:53:26;7.90;99.90
6333;DHT22;3199;49.102;8.856;2023-02-24T05:55:51;7.90;99.90
6333;DHT22;3199;49.102;8.856;2023-02-24T05:58:17;9.00;99.90
6333;DHT22;3199;49.102;8.856;2023-02-24T06:00:42;10.00;99.90
6333;DHT22;3199;49.102;8.856;2023-02-24T06:03:11;10.10;99.90
6333;DHT22;3199;49.102;8.856;2023-02-24T06:05:42;9.90;99.90
6333;DHT22;3199;49.102;8.856;2023-02-24T06:08:08;9.60;99.90
6333;DHT22;3199;49.102;8.856;2023-02-24T06:10:36;9.40;99.90
6333;DHT22;3199;49.102;8.856;2023-02-24T06:13:04;9.10;99.90
6333;DHT22;3199;49.102;8.856;2023-02-24T06:15:31;9.00;99.90
6333;DHT22;3199;49.102;8.856;2023-02-24T06:17:59;8.80;99.90
6333;DHT22;3199;49.102;8.856;2023-02-24T06:20:27;8.70;99.90
6333;DHT22;3199;49.102;8.856;2023-02-24T06:22:53;8.60;99.90
6333;DHT22;3199;49.102;8.856;2023-02-24T06:25:22;8.50;99.90
6333;DHT22;3199;49.102;8.856;2023-02-24T06:27:52;8.50;99.90
6333;DHT22;3199;49.102;8.856;2023-02-24T06:30:21;8.40;99.90
6333;DHT22;3199;49.102;8.856;2023-02-24T06:32:48;8.30;99.90
6333;DHT22;3199;49.102;8.856;2023-02-24T06:35:14;8.30;99.90
6333;DHT22;3199;49.102;8.856;2023-02-24T06:37:40;8.20;99.90
6333;DHT22;3199;49.102;8.856;2023-02-24T06:40:06;8.20;99.90
6333;DHT22;3199;49.102;8.856;2023-02-24T06:42:47;8.30;99.90
6333;DHT22;3199;49.102;8.856;2023-02-24T06:45:14;8.70;99.90
6333;DHT22;3199;49.102;8.856;2023-02-24T06:47:41;8.70;99.90
6333;DHT22;3199;49.102;8.856;2023-02-24T06:50:08;8.60;99.90
6333;DHT22;3199;49.102;8.856;2023-02-24T06:52:34;8.50;99.90
6333;DHT22;3199;49.102;8.856;2023-02-24T06:55:01;8.40;99.90
6333;DHT22;3199;49.102;8.856;2023-02-24T06:57:29;8.30;99.90
6333;DHT22;3199;49.102;8.856;2023-02-24T06:59:59;8.30;99.90
6333;DHT22;3199;49.102;8.856;2023-02-24T07:02:25;8.30;99.90
6333;DHT22;3199;49.102;8.856;2023-02-24T07:05:04;8.20;99.90
6333;DHT22;3199;49.102;8.856;2023-02-24T07:07:30;8.10;99.90
6333;DHT22;3199;49.102;8.856;2023-02-24T07:09:56;8.10;99.90
6333;DHT22;3199;49.102;8.856;2023-02-24T07:12:22;8.10;99.90
6333;DHT22;3199;49.102;8.856;2023-02-24T07:14:48;8.10;99.90
6333;DHT22;3199;49.102;8.856;2023-02-24T07:17:16;8.10;99.90
6333;DHT22;3199;49.102;8.856;2023-02-24T07:19:43;8.00;99.90
6333;DHT22;3199;49.102;8.856;2023-02-24T07:22:09;8.10;99.90
6333;DHT22;3199;49.102;8.856;2023-02-24T07:24:37;8.00;99.90
6333;DHT22;3199;49.102;8.856;2023-02-24T07:27:07;8.00;99.90
6333;DHT22;3199;49.102;8.856;2023-02-24T07:29:35;8.00;99.90
6333;DHT22;3199;49.102;8.856;2023-02-24T07:32:03;8.10;99.90
6333;DHT22;3199;49.102;8.856;2023-02-24T07:34:30;8.00;99.90
6333;DHT22;3199;49.102;8.856;2023-02-24T07:36:56;7.90;99.90
6333;DHT22;3199;49.102;8.856;2023-02-24T07:39:22;7.90;99.90
6333;DHT22;3199;49.102;8.856;2023-02-24T07:41:52;7.90;99.90
6333;DHT22;3199;49.102;8.856;2023-02-24T07:44:21;7.90;99.90
6333;DHT22;3199;49.102;8.856;2023-02-24T07:46:49;7.90;99.90
6333;DHT22;3199;49.102;8.856;2023-02-24T07:49:17;7.90;99.90
6333;DHT22;3199;49.102;8.856;2023-02-24T07:51:45;8.00;99.90
6333;DHT22;3199;49.102;8.856;2023-02-24T07:54:12;7.90;99.90
6333;DHT22;3199;49.102;8.856;2023-02-24T07:56:40;7.90;99.90
6333;DHT22;3199;49.102;8.856;2023-02-24T07:59:11;8.00;99.90
6333;DHT22;3199;49.102;8.856;2023-02-24T08:01:41;8.00;99.90
6333;DHT22;3199;49.102;8.856;2023-02-24T08:04:15;8.00;99.90
6333;DHT22;3199;49.102;8.856;2023-02-24T08:06:41;8.10;99.90
6333;DHT22;3199;49.102;8.856;2023-02-24T08:09:11;8.20;99.90
6333;DHT22;3199;49.102;8.856;2023-02-24T08:11:49;8.20;99.90
6333;DHT22;3199;49.102;8.856;2023-02-24T08:14:18;8.30;99.90
6333;DHT22;3199;49.102;8.856;2023-02-24T08:16:46;8.20;99.90
6333;DHT22;3199;49.102;8.856;2023-02-24T08:19:13;8.20;99.90
6333;DHT22;3199;49.102;8.856;2023-02-24T08:21:44;8.20;99.90
6333;DHT22;3199;49.102;8.856;2023-02-24T08:24:16;8.20;99.90
6333;DHT22;3199;49.102;8.856;2023-02-24T08:26:50;8.30;99.90
6333;DHT22;3199;49.102;8.856;2023-02-24T08:29:33;8.40;99.90
6333;DHT22;3199;49.102;8.856;2023-02-24T08:32:19;8.40;99.90
6333;DHT22;3199;49.102;8.856;2023-02-24T08:34:48;8.50;99.90
6333;DHT22;3199;49.102;8.856;2023-02-24T08:37:14;8.50;99.90
6333;DHT22;3199;49.102;8.856;2023-02-24T08:39:40;8.50;99.90
6333;DHT22;3199;49.102;8.856;2023-02-24T08:42:08;8.50;99.90
6333;DHT22;3199;49.102;8.856;2023-02-24T08:44:39;8.40;99.90
6333;DHT22;3199;49.102;8.856;2023-02-24T08:47:04;8.40;99.90
6333;DHT22;3199;49.102;8.856;2023-02-24T08:49:32;8.40;99.90
6333;DHT22;3199;49.102;8.856;2023-02-24T08:51:58;8.50;99.90
6333;DHT22;3199;49.102;8.856;2023-02-24T08:54:27;8.50;99.90
6333;DHT22;3199;49.102;8.856;2023-02-24T08:56:57;8.60;99.90
6333;DHT22;3199;49.102;8.856;2023-02-24T08:59:33;8.70;99.90
6333;DHT22;3199;49.102;8.856;2023-02-24T09:02:14;8.80;99.90
6333;DHT22;3199;49.102;8.856;2023-02-24T09:04:44;8.80;99.90
6333;DHT22;3199;49.102;8.856;2023-02-24T09:07:34;8.90;99.90
6333;DHT22;3199;49.102;8.856;2023-02-24T09:10:08;8.80;99.90
6333;DHT22;3199;49.102;8.856;2023-02-24T09:12:36;8.80;99.90
6333;DHT22;3199;49.102;8.856;2023-02-24T09:15:07;8.70;99.90
6333;DHT22;3199;49.102;8.856;2023-02-24T09:17:33;8.70;99.90
6333;DHT22;3199;49.102;8.856;2023-02-24T09:20:23;8.60;99.90
6333;DHT22;3199;49.102;8.856;2023-02-24T09:22:56;8.60;99.90
6333;DHT22;3199;49.102;8.856;2023-02-24T09:25:26;8.60;99.90
6333;DHT22;3199;49.102;8.856;2023-02-24T09:28:19;8.70;99.90
6333;DHT22;3199;49.102;8.856;2023-02-24T09:30:50;8.70;99.90
6333;DHT22;3199;49.102;8.856;2023-02-24T09:33:34;8.70;99.90
6333;DHT22;3199;49.102;8.856;2023-02-24T09:36:14;8.60;99.90
6333;DHT22;3199;49.102;8.856;2023-02-24T09:38:55;8.60;99.90
6333;DHT22;3199;49.102;8.856;2023-02-24T09:44:39;8.60;99.90
6333;DHT22;3199;49.102;8.856;2023-02-24T09:49:47;8.70;99.90
6333;DHT22;3199;49.102;8.856;2023-02-24T09:52:17;8.80;99.90
6333;DHT22;3199;49.102;8.856;2023-02-24T09:54:46;9.00;99.90
6333;DHT22;3199;49.102;8.856;2023-02-24T09:57:35;9.10;99.90
6333;DHT22;3199;49.102;8.856;2023-02-24T10:00:20;9.10;99.90
6333;DHT22;3199;49.102;8.856;2023-02-24T10:03:19;9.20;99.90
6333;DHT22;3199;49.102;8.856;2023-02-24T10:08:56;9.30;99.90
6333;DHT22;3199;49.102;8.856;2023-02-24T10:11:25;9.50;99.90
6333;DHT22;3199;49.102;8.856;2023-02-24T10:14:03;9.80;99.90
6333;DHT22;3199;49.102;8.856;2023-02-24T10:16:35;9.90;99.90
6333;DHT22;3199;49.102;8.856;2023-02-24T10:19:28;10.00;99.90
6333;DHT22;3199;49.102;8.856;2023-02-24T10:24:41;10.00;99.90
6333;DHT22;3199;49.102;8.856;2023-02-24T10:29:59;10.10;99.90
6333;DHT22;3199;49.102;8.856;2023-02-24T10:32:47;10.10;99.90
6333;DHT22;3199;49.102;8.856;2023-02-24T10:35:16;10.20;99.90
6333;DHT22;3199;49.102;8.856;2023-02-24T10:37:42;10.10;99.90
6333;DHT22;3199;49.102;8.856;2023-02-24T10:40:09;10.10;99.90
6333;DHT22;3199;49.102;8.856;2023-02-24T10:42:38;10.20;99.90
6333;DHT22;3199;49.102;8.856;2023-02-24T10:45:19;10.30;99.90
6333;DHT22;3199;49.102;8.856;2023-02-24T10:47:56;10.40;99.90
6333;DHT22;3199;49.102;8.856;2023-02-24T10:50:33;10.50;99.90
6333;DHT22;3199;49.102;8.856;2023-02-24T10:53:13;10.50;99.90
6333;DHT22;3199;49.102;8.856;2023-02-24T10:55:58;10.60;99.90
6333;DHT22;3199;49.102;8.856;2023-02-24T10:59:08;10.40;99.90
6333;DHT22;3199;49.102;8.856;2023-02-24T11:02:00;10.30;99.90
6333;DHT22;3199;49.102;8.856;2023-02-24T11:04:38;10.20;99.90
6333;DHT22;3199;49.102;8.856;2023-02-24T11:07:31;10.20;99.90
6333;DHT22;3199;49.102;8.856;2023-02-24T11:10:20;10.20;99.90
6333;DHT22;3199;49.102;8.856;2023-02-24T11:13:14;10.30;99.90
6333;DHT22;3199;49.102;8.856;2023-02-24T11:15:59;10.20;99.90
6333;DHT22;3199;49.102;8.856;2023-02-24T11:18:47;10.20;99.90
6333;DHT22;3199;49.102;8.856;2023-02-24T11:21:16;10.30;99.90
6333;DHT22;3199;49.102;8.856;2023-02-24T11:23:48;10.40;99.90
6333;DHT22;3199;49.102;8.856;2023-02-24T11:26:21;10.50;99.90
6333;DHT22;3199;49.102;8.856;2023-02-24T11:37:29;11.10;99.90
6333;DHT22;3199;49.102;8.856;2023-02-24T11:40:12;11.00;99.90
6333;DHT22;3199;49.102;8.856;2023-02-24T11:42:47;11.00;99.90
6333;DHT22;3199;49.102;8.856;2023-02-24T11:48:31;11.30;99.90
6333;DHT22;3199;49.102;8.856;2023-02-24T11:51:12;11.50;99.90
6333;DHT22;3199;49.102;8.856;2023-02-24T11:54:00;11.70;99.90
6333;DHT22;3199;49.102;8.856;2023-02-24T11:56:32;11.80;99.90
6333;DHT22;3199;49.102;8.856;2023-02-24T11:59:07;12.00;99.90
6333;DHT22;3199;49.102;8.856;2023-02-24T12:04:31;12.40;99.90
6333;DHT22;3199;49.102;8.856;2023-02-24T12:07:06;12.60;99.90
6333;DHT22;3199;49.102;8.856;2023-02-24T12:09:40;12.70;99.90
6333;DHT22;3199;49.102;8.856;2023-02-24T12:14:50;12.40;99.90
6333;DHT22;3199;49.102;8.856;2023-02-24T12:17:35;12.20;99.90
6333;DHT22;3199;49.102;8.856;2023-02-24T12:20:46;12.10;99.90
6333;DHT22;3199;49.102;8.856;2023-02-24T12:23:00;11.90;99.90
6333;DHT22;3199;49.102;8.856;2023-02-24T12:25:31;11.60;99.90
6333;DHT22;3199;49.102;8.856;2023-02-24T12:28:13;11.40;99.90
6333;DHT22;3199;49.102;8.856;2023-02-24T12:47:07;11.20;99.90
6333;DHT22;3199;49.102;8.856;2023-02-24T12:55:11;11.40;99.90
6333;DHT22;3199;49.102;8.856;2023-02-24T12:57:51;11.60;99.90
6333;DHT22;3199;49.102;8.856;2023-02-24T13:00:26;11.60;99.90
6333;DHT22;3199;49.102;8.856;2023-02-24T13:05:32;11.40;99.90
6333;DHT22;3199;49.102;8.856;2023-02-24T13:11:17;11.50;99.90
6333;DHT22;3199;49.102;8.856;2023-02-24T13:16:30;11.50;99.90
6333;DHT22;3199;49.102;8.856;2023-02-24T13:19:16;11.60;99.90
6333;DHT22;3199;49.102;8.856;2023-02-24T13:22:38;11.50;99.90
6333;DHT22;3199;49.102;8.856;2023-02-24T13:27:28;11.30;99.90
6333;DHT22;3199;49.102;8.856;2023-02-24T13:29:59;11.30;99.90
6333;DHT22;3199;49.102;8.856;2023-02-24T13:32:37;11.20;99.90
6333;DHT22;3199;49.102;8.856;2023-02-24T13:37:44;11.10;99.90
6333;DHT22;3199;49.102;8.856;2023-02-24T13:45:27;11.00;99.90
6333;DHT22;3199;49.102;8.856;2023-02-24T14:01:59;11.30;99.90
6333;DHT22;3199;49.102;8.856;2023-02-24T14:04:30;11.30;99.90
6333;DHT22;3199;49.102;8.856;2023-02-24T14:07:07;11.30;99.90
6333;DHT22;3199;49.102;8.856;2023-02-24T14:09:39;11.30;99.90
6333;DHT22;3199;49.102;8.856;2023-02-24T14:12:13;11.30;99.90
6333;DHT22;3199;49.102;8.856;2023-02-24T14:14:42;11.50;99.90
6333;DHT22;3199;49.102;8.856;2023-02-24T14:17:20;11.30;99.90
6333;DHT22;3199;49.102;8.856;2023-02-24T14:19:46;11.20;99.90
6333;DHT22;3199;49.102;8.856;2023-02-24T14:22:19;11.10;99.90
6333;DHT22;3199;49.102;8.856;2023-02-24T14:24:45;11.00;99.90
6333;DHT22;3199;49.102;8.856;2023-02-24T14:27:25;11.00;99.90
6333;DHT22;3199;49.102;8.856;2023-02-24T14:29:51;10.90;99.90
6333;DHT22;3199;49.102;8.856;2023-02-24T14:32:20;10.80;99.90
6333;DHT22;3199;49.102;8.856;2023-02-24T14:34:46;10.70;99.90
6333;DHT22;3199;49.102;8.856;2023-02-24T14:37:12;10.80;99.90
6333;DHT22;3199;49.102;8.856;2023-02-24T14:39:49;10.80;99.90
6333;DHT22;3199;49.102;8.856;2023-02-24T14:42:19;10.90;99.90
6333;DHT22;3199;49.102;8.856;2023-02-24T14:44:48;10.90;99.90
6333;DHT22;3199;49.102;8.856;2023-02-24T14:47:15;10.90;99.90
6333;DHT22;3199;49.102;8.856;2023-02-24T14:49:51;10.90;99.90
6333;DHT22;3199;49.102;8.856;2023-02-24T14:52:45;11.00;99.90
6333;DHT22;3199;49.102;8.856;2023-02-24T14:55:13;11.00;99.90
6333;DHT22;3199;49.102;8.856;2023-02-24T15:00:24;10.80;99.90
6333;DHT22;3199;49.102;8.856;2023-02-24T15:05:28;10.50;99.90
6333;DHT22;3199;49.102;8.856;2023-02-24T15:07:54;10.50;99.90
6333;DHT22;3199;49.102;8.856;2023-02-24T15:10:26;10.40;99.90
6333;DHT22;3199;49.102;8.856;2023-02-24T15:13:14;10.30;99.90
6333;DHT22;3199;49.102;8.856;2023-02-24T15:15:41;10.30;99.90
6333;DHT22;3199;49.102;8.856;2023-02-24T15:18:22;10.20;99.90
6333;DHT22;3199;49.102;8.856;2023-02-24T15:20:58;10.20;99.90
6333;DHT22;3199;49.102;8.856;2023-02-24T15:23:27;10.20;99.90
6333;DHT22;3199;49.102;8.856;2023-02-24T15:25:54;10.20;99.90
6333;DHT22;3199;49.102;8.856;2023-02-24T15:28:23;10.20;99.90
6333;DHT22;3199;49.102;8.856;2023-02-24T15:31:21;10.20;99.90
6333;DHT22;3199;49.102;8.856;2023-02-24T15:33:56;10.20;99.90
6333;DHT22;3199;49.102;8.856;2023-02-24T15:36:32;10.20;99.90
6333;DHT22;3199;49.102;8.856;2023-02-24T15:39:06;10.20;99.90
6333;DHT22;3199;49.102;8.856;2023-02-24T15:41:41;10.30;99.90
6333;DHT22;3199;49.102;8.856;2023-02-24T15:44:27;10.20;99.90
6333;DHT22;3199;49.102;8.856;2023-02-24T15:46:54;10.20;99.90
6333;DHT22;3199;49.102;8.856;2023-02-24T15:49:19;10.10;99.90
6333;DHT22;3199;49.102;8.856;2023-02-24T15:51:47;10.10;99.90
6333;DHT22;3199;49.102;8.856;2023-02-24T15:56:44;10.00;99.90
6333;DHT22;3199;49.102;8.856;2023-02-24T15:59:14;9.90;99.90
6333;DHT22;3199;49.102;8.856;2023-02-24T16:01:40;9.80;99.90
6333;DHT22;3199;49.102;8.856;2023-02-24T16:04:05;9.80;99.90
6333;DHT22;3199;49.102;8.856;2023-02-24T16:06:35;9.80;99.90
6333;DHT22;3199;49.102;8.856;2023-02-24T16:09:07;9.80;99.90
6333;DHT22;3199;49.102;8.856;2023-02-24T16:11:38;9.70;99.90
6333;DHT22;3199;49.102;8.856;2023-02-24T16:14:04;9.70;99.90
6333;DHT22;3199;49.102;8.856;2023-02-24T16:16:29;9.60;99.90
6333;DHT22;3199;49.102;8.856;2023-02-24T16:18:57;9.60;99.90
6333;DHT22;3199;49.102;8.856;2023-02-24T16:21:23;9.60;99.90
6333;DHT22;3199;49.102;8.856;2023-02-24T16:23:48;9.60;99.90
6333;DHT22;3199;49.102;8.856;2023-02-24T16:26:21;9.50;99.90
6333;DHT22;3199;49.102;8.856;2023-02-24T16:28:56;9.50;99.90
6333;DHT22;3199;49.102;8.856;2023-02-24T16:31:23;9.50;99.90
6333;DHT22;3199;49.102;8.856;2023-02-24T16:33:49;9.40;99.90
6333;DHT22;3199;49.102;8.856;2023-02-24T16:36:15;9.40;99.90
6333;DHT22;3199;49.102;8.856;2023-02-24T16:38:42;9.40;99.90
6333;DHT22;3199;49.102;8.856;2023-02-24T16:41:09;9.40;99.90
6333;DHT22;3199;49.102;8.856;2023-02-24T16:43:36;9.40;99.90
6333;DHT22;3199;49.102;8.856;2023-02-24T16:46:04;9.30;99.90
6333;DHT22;3199;49.102;8.856;2023-02-24T16:48:31;9.30;99.90
6333;DHT22;3199;49.102;8.856;2023-02-24T16:51:04;9.30;99.90
6333;DHT22;3199;49.102;8.856;2023-02-24T16:53:30;9.30;99.90
6333;DHT22;3199;49.102;8.856;2023-02-24T16:55:56;9.20;99.90
6333;DHT22;3199;49.102;8.856;2023-02-24T16:58:22;9.20;99.90
6333;DHT22;3199;49.102;8.856;2023-02-24T17:00:49;9.20;99.90
6333;DHT22;3199;49.102;8.856;2023-02-24T17:03:20;9.20;99.90
6333;DHT22;3199;49.102;8.856;2023-02-24T17:05:46;9.10;99.90
6333;DHT22;3199;49.102;8.856;2023-02-24T17:08:13;9.10;99.90
6333;DHT22;3199;49.102;8.856;2023-02-24T17:10:39;9.10;99.90
6333;DHT22;3199;49.102;8.856;2023-02-24T17:13:09;9.00;99.90
6333;DHT22;3199;49.102;8.856;2023-02-24T17:15:34;9.00;99.90
6333;DHT22;3199;49.102;8.856;2023-02-24T17:18:00;9.00;99.90
6333;DHT22;3199;49.102;8.856;2023-02-24T17:20:26;9.00;99.90
6333;DHT22;3199;49.102;8.856;2023-02-24T17:22:51;8.90;99.90
6333;DHT22;3199;49.102;8.856;2023-02-24T17:25:21;8.90;99.90
6333;DHT22;3199;49.102;8.856;2023-02-24T17:27:47;8.90;99.90
6333;DHT22;3199;49.102;8.856;2023-02-24T17:30:15;8.80;99.90
6333;DHT22;3199;49.102;8.856;2023-02-24T17:32:40;8.80;99.90
6333;DHT22;3199;49.102;8.856;2023-02-24T17:35:06;8.80;99.90
6333;DHT22;3199;49.102;8.856;2023-02-24T17:37:32;8.70;99.90
6333;DHT22;3199;49.102;8.856;2023-02-24T17:39:59;8.70;99.90
6333;DHT22;3199;49.102;8.856;2023-02-24T17:42:24;8.60;99.90
6333;DHT22;3199;49.102;8.856;2023-02-24T17:44:50;8.70;99.90
6333;DHT22;3199;49.102;8.856;2023-02-24T17:47:15;8.60;99.90
6333;DHT22;3199;49.102;8.856;2023-02-24T17:49:41;8.60;99.90
6333;DHT22;3199;49.102;8.856;2023-02-24T17:52:06;8.60;99.90
6333;DHT22;3199;49.102;8.856;2023-02-24T17:54:32;8.60;99.90
6333;DHT22;3199;49.102;8.856;2023-02-24T17:56:57;8.50;99.90
6333;DHT22;3199;49.102;8.856;2023-02-24T17:59:23;9.30;99.90
6333;DHT22;3199;49.102;8.856;2023-02-24T18:01:48;9.40;99.90
6333;DHT22;3199;49.102;8.856;2023-02-24T18:04:14;9.20;99.90
6333;DHT22;3199;49.102;8.856;2023-02-24T18:06:41;9.00;99.90
6333;DHT22;3199;49.102;8.856;2023-02-24T18:09:06;8.90;99.90
6333;DHT22;3199;49.102;8.856;2023-02-24T18:11:32;8.80;99.90
6333;DHT22;3199;49.102;8.856;2023-02-24T18:13:59;8.70;99.90
6333;DHT22;3199;49.102;8.856;2023-02-24T18:16:25;8.60;99.90
6333;DHT22;3199;49.102;8.856;2023-02-24T18:18:50;8.60;99.90
6333;DHT22;3199;49.102;8.856;2023-02-24T18:21:16;8.60;99.90
6333;DHT22;3199;49.102;8.856;2023-02-24T18:23:41;8.50;99.90
6333;DHT22;3199;49.102;8.856;2023-02-24T18:26:09;8.50;99.90
6333;DHT22;3199;49.102;8.856;2023-02-24T18:28:35;8.50;99.90
6333;DHT22;3199;49.102;8.856;2023-02-24T18:31:09;8.50;99.90
6333;DHT22;3199;49.102;8.856;2023-02-24T18:33:34;8.40;99.90
6333;DHT22;3199;49.102;8.856;2023-02-24T18:36:00;8.40;99.90
6333;DHT22;3199;49.102;8.856;2023-02-24T18:38:26;8.40;99.90
6333;DHT22;3199;49.102;8.856;2023-02-24T18:41:16;8.40;99.90
6333;DHT22;3199;49.102;8.856;2023-02-24T18:43:43;8.40;99.90
6333;DHT22;3199;49.102;8.856;2023-02-24T18:46:12;8.40;99.90
6333;DHT22;3199;49.102;8.856;2023-02-24T18:48:38;8.40;99.90
6333;DHT22;3199;49.102;8.856;2023-02-24T18:51:05;8.40;99.90
6333;DHT22;3199;49.102;8.856;2023-02-24T18:53:32;8.40;99.90